Time;durP1;ratioP1;P1;durP2;ratioP2;P2;SDS_P1;SDS_P2;PMS_P1;PMS_P2;Temp;Humidity;BMP_temperature;BMP_pressure;BME280_temperature;BME280_humidity;BME280_pressure;Samples;Min_cycle;Max_cycle;Signal;HPM_P1;HPM_P2
2022/05/22 00:00:25;;;;;;;5.95;2.83;;;15.70;63.10;;;;;;5055701;28;20039;-67
2022/05/22 00:02:53;;;;;;;6.03;2.80;;;15.60;63.30;;;;;;5055959;28;20032;-66
2022/05/22 00:05:21;;;;;;;3.75;2.47;;;15.50;63.40;;;;;;5054619;28;20113;-66
2022/05/22 00:07:47;;;;;;;4.30;2.40;;;15.60;63.60;;;;;;5057389;28;20037;-66
2022/05/22 00:10:13;;;;;;;3.83;2.45;;;15.40;63.60;;;;;;5056967;28;20060;-66
2022/05/22 00:12:40;;;;;;;5.55;2.45;;;15.40;64.00;;;;;;5050350;28;20078;-67
2022/05/22 00:15:06;;;;;;;4.10;2.30;;;15.30;64.30;;;;;;5055145;28;20101;-67
2022/05/22 00:17:32;;;;;;;3.45;1.95;;;15.20;64.40;;;;;;5056982;28;20175;-66
2022/05/22 00:19:58;;;;;;;2.35;2.10;;;15.20;64.50;;;;;;5057642;28;20033;-66
2022/05/22 00:22:23;;;;;;;2.67;2.00;;;15.10;64.60;;;;;;5053132;28;20241;-66
2022/05/22 00:24:49;;;;;;;3.17;2.03;;;15.10;64.80;;;;;;5053890;28;20396;-67
2022/05/22 00:27:15;;;;;;;3.15;2.22;;;15.10;64.80;;;;;;5054014;28;20036;-66
2022/05/22 00:29:41;;;;;;;4.32;1.65;;;15.00;64.90;;;;;;5053214;28;20029;-65
2022/05/22 00:32:08;;;;;;;5.75;2.15;;;15.00;65.00;;;;;;5055056;28;20035;-66
2022/05/22 00:34:34;;;;;;;2.03;1.83;;;15.00;65.20;;;;;;5052987;28;20037;-66
2022/05/22 00:37:00;;;;;;;4.30;1.95;;;15.00;65.20;;;;;;5052932;28;20470;-67
2022/05/22 00:39:26;;;;;;;2.63;1.90;;;15.00;65.30;;;;;;5053092;28;20345;-66
2022/05/22 00:41:55;;;;;;;1.92;1.60;;;15.00;65.30;;;;;;5054490;28;20028;-66
2022/05/22 00:44:21;;;;;;;2.08;1.88;;;15.10;65.50;;;;;;5053589;28;20029;-66
2022/05/22 00:46:48;;;;;;;2.88;1.90;;;15.10;65.20;;;;;;5053685;28;20697;-65
2022/05/22 00:49:21;;;;;;;4.00;1.50;;;15.10;65.20;;;;;;5052056;28;20098;-66
2022/05/22 00:52:13;;;;;;;3.55;1.90;;;15.10;65.00;;;;;;5053394;28;20033;-65
2022/05/22 00:54:53;;;;;;;2.92;1.67;;;15.20;65.70;;;;;;5049643;28;20037;-66
2022/05/22 00:57:20;;;;;;;3.40;1.90;;;15.20;64.90;;;;;;5052991;28;20530;-66
2022/05/22 00:59:54;;;;;;;1.90;1.70;;;15.20;64.50;;;;;;5053435;28;20036;-66
2022/05/22 01:02:20;;;;;;;2.42;1.80;;;15.20;65.00;;;;;;5055382;28;20032;-66
2022/05/22 01:04:49;;;;;;;2.13;1.77;;;15.20;64.50;;;;;;5050540;28;20029;-66
2022/05/22 01:07:15;;;;;;;3.63;2.05;;;15.10;64.60;;;;;;5052734;28;20037;-66
2022/05/22 01:09:41;;;;;;;3.15;1.77;;;15.00;64.80;;;;;;5054517;28;20063;-66
2022/05/22 01:12:22;;;;;;;3.08;1.80;;;15.00;64.90;;;;;;5048212;28;20095;-66
2022/05/22 01:14:51;;;;;;;2.22;1.90;;;14.90;65.20;;;;;;5051007;28;20049;-64
2022/05/22 01:17:17;;;;;;;2.83;1.98;;;14.90;65.30;;;;;;5053352;28;20057;-66
2022/05/22 01:20:00;;;;;;;2.83;1.95;;;14.90;65.20;;;;;;5052977;28;20056;-66
2022/05/22 01:22:27;;;;;;;3.67;1.75;;;14.70;66.40;;;;;;5052122;28;20119;-64
2022/05/22 01:24:53;;;;;;;3.65;2.13;;;14.70;65.50;;;;;;5051186;28;20072;-66
2022/05/22 01:27:21;;;;;;;2.78;1.98;;;14.60;65.70;;;;;;5053220;28;20112;-66
2022/05/22 01:29:46;;;;;;;3.78;2.10;;;14.50;65.80;;;;;;5051797;28;20056;-66
2022/05/22 01:32:12;;;;;;;9.43;3.75;;;14.50;65.90;;;;;;5052931;28;20083;-66
2022/05/22 01:34:38;;;;;;;7.63;4.00;;;14.50;65.90;;;;;;5051918;28;20054;-66
2022/05/22 01:37:04;;;;;;;6.15;3.15;;;14.40;66.00;;;;;;5050597;28;20571;-66
2022/05/22 01:39:29;;;;;;;4.93;2.35;;;14.30;66.10;;;;;;5050118;28;20033;-66
2022/05/22 01:41:55;;;;;;;2.67;2.00;;;14.30;66.20;;;;;;5051722;28;20086;-66
2022/05/22 01:44:21;;;;;;;3.60;2.42;;;14.20;66.40;;;;;;5051498;28;20208;-66
2022/05/22 01:46:47;;;;;;;2.80;2.35;;;14.10;66.60;;;;;;5049900;28;20059;-67
2022/05/22 01:49:13;;;;;;;5.15;2.28;;;14.10;66.70;;;;;;5050786;28;20048;-66
2022/05/22 01:51:41;;;;;;;2.97;2.22;;;14.00;66.80;;;;;;5051314;28;20032;-66
2022/05/22 01:54:07;;;;;;;2.70;2.50;;;14.00;67.20;;;;;;5050857;28;20029;-65
2022/05/22 01:56:35;;;;;;;5.20;2.55;;;13.90;67.20;;;;;;5051134;28;20547;-63
2022/05/22 01:59:01;;;;;;;3.22;2.30;;;13.80;67.30;;;;;;5052659;28;20091;-65
2022/05/22 02:01:26;;;;;;;2.35;2.15;;;13.80;67.40;;;;;;5051319;28;20507;-67
2022/05/22 02:03:52;;;;;;;3.40;2.00;;;13.70;67.60;;;;;;5052396;28;20033;-66
2022/05/22 02:06:17;;;;;;;3.00;2.08;;;13.70;67.80;;;;;;5053467;28;20029;-66
2022/05/22 02:08:43;;;;;;;2.15;1.95;;;13.70;67.90;;;;;;5050387;28;20048;-66
2022/05/22 02:11:09;;;;;;;3.55;2.03;;;13.60;68.00;;;;;;5049223;28;20044;-66
2022/05/22 02:13:47;;;;;;;3.10;2.08;;;13.60;68.10;;;;;;5049957;28;20404;-66
2022/05/22 02:16:13;;;;;;;2.55;2.08;;;13.60;68.90;;;;;;5048668;28;20036;-66
2022/05/22 02:18:39;;;;;;;1.98;1.80;;;13.70;68.30;;;;;;5053561;28;20033;-66
2022/05/22 02:21:05;;;;;;;4.10;2.05;;;13.70;68.00;;;;;;5053835;28;20031;-66
2022/05/22 02:23:34;;;;;;;3.20;2.15;;;13.80;68.00;;;;;;5052711;28;20041;-65
2022/05/22 02:25:59;;;;;;;2.80;2.22;;;13.80;68.00;;;;;;5052802;28;20975;-65
2022/05/22 02:28:26;;;;;;;3.00;2.17;;;13.80;67.60;;;;;;5049490;28;20037;-65
2022/05/22 02:30:59;;;;;;;4.43;2.10;;;13.80;67.60;;;;;;5054235;28;20039;-64
2022/05/22 02:33:25;;;;;;;3.08;2.25;;;13.80;67.80;;;;;;5051336;28;20037;-66
2022/05/22 02:35:51;;;;;;;2.20;2.00;;;13.80;67.40;;;;;;5052987;28;20411;-66
2022/05/22 02:38:17;;;;;;;2.90;2.10;;;13.80;67.40;;;;;;5051750;28;20094;-66
2022/05/22 02:40:43;;;;;;;1.98;1.83;;;13.70;67.60;;;;;;5051691;28;20081;-67
2022/05/22 02:43:09;;;;;;;5.93;2.10;;;13.60;67.60;;;;;;5049175;28;20124;-66
2022/05/22 02:45:37;;;;;;;3.63;2.15;;;13.60;67.60;;;;;;5051563;28;20039;-66
2022/05/22 02:48:04;;;;;;;6.07;2.35;;;13.60;68.00;;;;;;5053344;28;20543;-65
2022/05/22 02:50:31;;;;;;;3.78;2.00;;;13.60;68.00;;;;;;5053590;28;20112;-66
2022/05/22 02:52:57;;;;;;;2.72;1.90;;;13.60;68.00;;;;;;5054610;28;20419;-66
2022/05/22 02:55:23;;;;;;;3.13;2.20;;;13.60;68.10;;;;;;5049729;28;20044;-66
2022/05/22 02:57:49;;;;;;;3.75;2.15;;;13.60;68.10;;;;;;5051719;28;20033;-66
2022/05/22 03:00:19;;;;;;;2.45;2.17;;;13.50;68.00;;;;;;5051567;28;20025;-66
2022/05/22 03:02:45;;;;;;;2.13;1.92;;;13.50;68.30;;;;;;5050555;28;20475;-66
2022/05/22 03:05:12;;;;;;;1.90;1.73;;;13.50;69.10;;;;;;5051498;28;20076;-66
2022/05/22 03:07:37;;;;;;;4.15;2.10;;;13.50;68.50;;;;;;5049806;28;20530;-67
2022/05/22 03:10:05;;;;;;;2.35;2.08;;;13.50;68.50;;;;;;5051140;28;20025;-66
2022/05/22 03:12:31;;;;;;;3.13;2.40;;;13.50;68.70;;;;;;5046066;28;20047;-66
2022/05/22 03:14:58;;;;;;;2.38;2.17;;;13.50;68.60;;;;;;5048660;28;20108;-66
2022/05/22 03:17:25;;;;;;;4.50;2.25;;;13.50;69.00;;;;;;5051824;28;20022;-64
2022/05/22 03:19:50;;;;;;;2.38;2.10;;;13.40;69.00;;;;;;5049274;28;20028;-65
2022/05/22 03:22:16;;;;;;;3.50;2.10;;;13.40;69.00;;;;;;5051588;28;20028;-66
2022/05/22 03:24:42;;;;;;;3.08;2.40;;;13.40;69.00;;;;;;5049325;28;20128;-67
2022/05/22 03:27:11;;;;;;;2.35;2.13;;;13.40;69.00;;;;;;5050558;28;20037;-66
2022/05/22 03:29:38;;;;;;;2.72;2.05;;;13.40;69.30;;;;;;5050905;28;20040;-66
2022/05/22 03:32:05;;;;;;;3.28;2.20;;;13.30;69.20;;;;;;5051102;28;20577;-66
2022/05/22 03:34:31;;;;;;;4.80;2.10;;;13.40;69.20;;;;;;5050043;28;20056;-66
2022/05/22 03:36:57;;;;;;;3.05;2.20;;;13.40;69.20;;;;;;5050718;28;20142;-65
2022/05/22 03:39:23;;;;;;;2.92;2.08;;;13.40;69.30;;;;;;5047642;28;20041;-64
2022/05/22 03:41:49;;;;;;;2.28;2.08;;;13.40;69.20;;;;;;5050807;28;20040;-65
2022/05/22 03:44:15;;;;;;;3.25;2.22;;;13.40;69.10;;;;;;5052155;28;20408;-66
2022/05/22 03:46:40;;;;;;;2.72;2.10;;;13.50;69.10;;;;;;5049144;28;20044;-66
2022/05/22 03:49:06;;;;;;;2.10;1.90;;;13.50;68.90;;;;;;5053788;28;20037;-65
2022/05/22 03:51:32;;;;;;;2.67;2.13;;;13.60;68.80;;;;;;5054356;28;20032;-65
2022/05/22 03:53:59;;;;;;;2.15;1.95;;;13.60;68.80;;;;;;5054490;28;20052;-67
2022/05/22 03:56:24;;;;;;;2.30;2.05;;;13.60;68.70;;;;;;5052982;28;20033;-66
2022/05/22 03:58:50;;;;;;;2.58;2.08;;;13.60;68.60;;;;;;5053538;28;20093;-63
2022/05/22 04:01:16;;;;;;;3.45;2.30;;;13.60;68.30;;;;;;5054962;28;20036;-66
2022/05/22 04:03:41;;;;;;;2.42;2.10;;;13.70;68.30;;;;;;5054536;28;20595;-67
2022/05/22 04:06:09;;;;;;;2.97;2.30;;;13.60;68.20;;;;;;5055811;28;20036;-66
2022/05/22 04:08:35;;;;;;;4.57;2.10;;;13.60;68.50;;;;;;5054810;28;20032;-66
2022/05/22 04:11:16;;;;;;;4.13;2.45;;;13.50;68.60;;;;;;5051336;28;20082;-66
2022/05/22 04:13:42;;;;;;;2.30;2.10;;;13.40;69.70;;;;;;5052055;28;20045;-66
2022/05/22 04:16:08;;;;;;;2.33;2.05;;;13.30;69.00;;;;;;5060981;28;20040;-66
2022/05/22 04:18:34;;;;;;;3.97;2.42;;;13.30;69.20;;;;;;5053146;28;20040;-67
2022/05/22 04:21:00;;;;;;;2.35;2.17;;;13.20;69.50;;;;;;5054868;28;20572;-66
2022/05/22 04:26:11;;;;;;;2.92;2.28;;;13.20;69.90;;;;;;5053652;28;20048;-65
2022/05/22 04:28:37;;;;;;;3.05;2.30;;;13.10;69.90;;;;;;5052741;28;20760;-65
2022/05/22 04:31:04;;;;;;;4.50;2.63;;;13.10;70.10;;;;;;5054313;28;20079;-65
2022/05/22 04:33:30;;;;;;;3.85;2.63;;;13.10;70.40;;;;;;5054801;28;20025;-66
2022/05/22 04:35:56;;;;;;;2.80;2.35;;;13.20;70.60;;;;;;5053225;28;20040;-66
2022/05/22 04:38:24;;;;;;;3.03;2.47;;;13.20;70.40;;;;;;5054878;28;20061;-67
2022/05/22 04:40:57;;;;;;;2.88;2.40;;;13.20;70.60;;;;;;5052973;28;20120;-66
2022/05/22 04:43:23;;;;;;;4.05;2.40;;;13.20;71.00;;;;;;5055176;28;20064;-64
2022/05/22 04:45:50;;;;;;;3.80;2.47;;;13.20;70.70;;;;;;5052350;28;20037;-66
2022/05/22 04:48:19;;;;;;;5.63;2.70;;;13.20;71.00;;;;;;5053059;28;20964;-66
2022/05/22 04:50:46;;;;;;;2.55;2.35;;;13.20;71.20;;;;;;5055169;28;20025;-66
2022/05/22 04:53:12;;;;;;;2.60;2.40;;;13.20;71.40;;;;;;5051101;28;20032;-65
2022/05/22 04:55:38;;;;;;;2.53;2.17;;;13.20;71.60;;;;;;5051565;28;20518;-66
2022/05/22 04:58:04;;;;;;;3.40;2.50;;;13.20;71.70;;;;;;5052740;28;20029;-66
2022/05/22 05:00:30;;;;;;;3.78;2.53;;;13.30;72.00;;;;;;5051801;28;20029;-66
2022/05/22 05:02:55;;;;;;;4.57;2.75;;;13.40;72.40;;;;;;5051504;28;20124;-65
2022/05/22 05:05:21;;;;;;;2.65;2.45;;;13.40;72.20;;;;;;5049950;28;20036;-66
2022/05/22 05:07:47;;;;;;;2.92;2.60;;;13.50;72.30;;;;;;5053722;28;20037;-66
2022/05/22 05:10:12;;;;;;;2.95;2.72;;;13.50;72.20;;;;;;5052392;28;20032;-66
2022/05/22 05:12:40;;;;;;;3.25;2.88;;;13.50;72.20;;;;;;5046369;28;20039;-66
2022/05/22 05:15:09;;;;;;;2.60;2.40;;;13.60;72.50;;;;;;5051387;28;20408;-65
2022/05/22 05:17:34;;;;;;;4.53;2.72;;;13.70;72.70;;;;;;5057896;28;20040;-66
2022/05/22 05:20:00;;;;;;;4.70;3.00;;;13.70;72.60;;;;;;5052010;28;20044;-65
2022/05/22 05:22:30;;;;;;;3.30;2.83;;;13.80;72.70;;;;;;5053287;28;20396;-65
2022/05/22 05:24:55;;;;;;;4.78;2.97;;;13.90;73.10;;;;;;5055814;28;20025;-66
2022/05/22 05:27:21;;;;;;;3.25;2.72;;;13.90;72.80;;;;;;5053648;28;20098;-66
2022/05/22 05:29:47;;;;;;;3.00;2.70;;;14.00;72.80;;;;;;5054115;28;20033;-66
2022/05/22 05:32:16;;;;;;;4.38;3.03;;;14.10;72.80;;;;;;5051338;28;20059;-66
2022/05/22 05:34:42;;;;;;;3.47;3.17;;;14.10;72.80;;;;;;5051295;28;20458;-67
2022/05/22 05:37:07;;;;;;;3.03;2.67;;;14.30;72.80;;;;;;5054665;28;20083;-66
2022/05/22 05:39:35;;;;;;;4.47;3.08;;;14.30;73.00;;;;;;5052756;28;20063;-67
2022/05/22 05:42:00;;;;;;;4.93;3.45;;;14.40;72.90;;;;;;5050583;28;20075;-66
2022/05/22 05:44:26;;;;;;;3.55;3.25;;;14.40;72.70;;;;;;5054427;28;20442;-66
2022/05/22 05:46:52;;;;;;;3.38;2.85;;;14.50;72.50;;;;;;5053329;28;20055;-65
2022/05/22 05:49:18;;;;;;;5.63;3.30;;;14.50;72.30;;;;;;5050931;28;20040;-66
2022/05/22 05:51:43;;;;;;;3.63;3.28;;;14.50;72.30;;;;;;5051794;28;20040;-66
2022/05/22 05:54:09;;;;;;;4.03;3.60;;;14.60;72.50;;;;;;5051499;28;20036;-65
2022/05/22 05:56:41;;;;;;;3.90;3.00;;;14.70;72.40;;;;;;5052431;28;20029;-66
2022/05/22 05:59:07;;;;;;;3.33;3.03;;;14.70;72.40;;;;;;5053867;28;20112;-66
2022/05/22 06:01:34;;;;;;;3.55;3.25;;;14.80;72.10;;;;;;5053026;28;20033;-66
2022/05/22 06:04:01;;;;;;;4.45;3.25;;;14.90;71.80;;;;;;5055374;28;20136;-66
2022/05/22 06:06:27;;;;;;;3.83;3.38;;;15.00;71.60;;;;;;5069763;28;20033;-66
2022/05/22 06:08:52;;;;;;;3.25;2.92;;;15.10;71.70;;;;;;5054951;28;20087;-66
2022/05/22 06:11:18;;;;;;;3.47;3.17;;;15.20;71.40;;;;;;5051890;28;20068;-66
2022/05/22 06:13:44;;;;;;;5.20;3.85;;;15.20;71.30;;;;;;5050511;28;20041;-66
2022/05/22 06:16:10;;;;;;;3.95;3.22;;;15.30;71.20;;;;;;5054664;28;20056;-66
2022/05/22 06:18:36;;;;;;;3.80;3.15;;;15.40;70.90;;;;;;5053679;28;20061;-66
2022/05/22 06:21:17;;;;;;;3.97;3.40;;;15.50;70.70;;;;;;5054109;28;20028;-65
2022/05/22 06:23:43;;;;;;;3.30;3.00;;;15.60;70.60;;;;;;5059250;28;20054;-66
2022/05/22 06:26:10;;;;;;;3.05;2.85;;;15.70;70.10;;;;;;5053391;28;20025;-66
2022/05/22 06:28:36;;;;;;;4.32;3.33;;;15.80;70.20;;;;;;5053094;28;20108;-66
2022/05/22 06:31:06;;;;;;;3.90;3.60;;;15.90;70.40;;;;;;5055731;28;20037;-65
2022/05/22 06:33:32;;;;;;;5.75;3.50;;;16.00;70.40;;;;;;5057855;28;20029;-66
2022/05/22 06:35:58;;;;;;;4.28;3.35;;;16.10;70.10;;;;;;5042740;28;20028;-65
2022/05/22 06:41:10;;;;;;;3.65;3.22;;;16.20;69.50;;;;;;5051154;28;20627;-65
2022/05/22 06:43:35;;;;;;;4.30;3.85;;;16.30;69.60;;;;;;5053837;28;20040;-66
2022/05/22 06:46:03;;;;;;;3.90;3.47;;;16.40;70.40;;;;;;5052693;28;20511;-66
2022/05/22 06:48:28;;;;;;;3.95;3.65;;;16.50;69.30;;;;;;5054564;28;20025;-65
2022/05/22 06:50:54;;;;;;;4.13;3.63;;;16.60;69.30;;;;;;5053873;28;20424;-66
2022/05/22 06:53:20;;;;;;;5.57;4.07;;;16.60;69.00;;;;;;5052592;28;20071;-65
2022/05/22 06:55:46;;;;;;;4.30;3.67;;;16.70;68.90;;;;;;5052868;28;20463;-65
2022/05/22 06:58:12;;;;;;;5.30;3.95;;;16.70;68.60;;;;;;5055327;28;20068;-66
2022/05/22 07:00:38;;;;;;;3.60;3.30;;;16.80;68.60;;;;;;5051155;28;20476;-66
2022/05/22 07:03:04;;;;;;;3.95;3.38;;;16.90;68.60;;;;;;5054875;28;20033;-66
2022/05/22 07:05:29;;;;;;;3.80;3.35;;;16.90;68.50;;;;;;5051060;28;20093;-66
2022/05/22 07:07:55;;;;;;;4.20;3.45;;;17.00;68.70;;;;;;5053197;28;20146;-65
2022/05/22 07:11:38;;;;;;;4.05;3.70;;;17.10;68.60;;;;;;5056622;28;20025;-66
2022/05/22 07:13:06;;;;;;;4.15;3.75;;;17.20;68.60;;;;;;5049843;28;20033;-66
2022/05/22 07:15:32;;;;;;;3.55;3.25;;;17.30;69.30;;;;;;5053964;28;20434;-65
2022/05/22 07:17:57;;;;;;;4.05;3.40;;;17.40;68.00;;;;;;5053706;28;20037;-66
2022/05/22 07:20:23;;;;;;;4.97;3.70;;;17.50;68.00;;;;;;5052251;28;20123;-67
2022/05/22 07:22:49;;;;;;;7.28;3.70;;;17.60;68.00;;;;;;5054014;28;20047;-64
2022/05/22 07:25:14;;;;;;;4.38;3.80;;;17.60;67.60;;;;;;5056603;28;20127;-65
2022/05/22 07:27:41;;;;;;;7.60;3.80;;;17.70;67.50;;;;;;5055986;28;20036;-65
2022/05/22 07:30:07;;;;;;;4.10;3.70;;;17.70;67.70;;;;;;5056133;28;20029;-64
2022/05/22 07:32:33;;;;;;;5.28;3.95;;;17.80;67.60;;;;;;5057663;28;20021;-65
2022/05/22 07:34:59;;;;;;;4.40;3.78;;;17.90;67.40;;;;;;5056062;28;20035;-65
2022/05/22 07:37:25;;;;;;;4.75;3.60;;;17.90;67.10;;;;;;5061435;28;20032;-66
2022/05/22 07:39:51;;;;;;;3.67;3.33;;;18.00;67.20;;;;;;5056974;28;20412;-65
2022/05/22 07:42:17;;;;;;;4.95;3.28;;;18.10;67.10;;;;;;5054274;28;22923;-65
2022/05/22 07:44:42;;;;;;;3.35;3.05;;;18.20;66.80;;;;;;5060629;28;20043;-66
2022/05/22 07:47:08;;;;;;;3.45;3.15;;;18.30;66.40;;;;;;5058959;28;20029;-65
2022/05/22 07:52:19;;;;;;;3.67;3.38;;;18.50;65.60;;;;;;5053774;28;20036;-64
2022/05/22 07:54:44;;;;;;;4.78;2.97;;;18.70;65.60;;;;;;5053367;28;20037;-65
2022/05/22 07:57:10;;;;;;;3.22;2.90;;;18.80;65.40;;;;;;5055045;28;20048;-65
2022/05/22 07:59:38;;;;;;;5.18;3.17;;;18.90;65.00;;;;;;5055957;28;20029;-65
2022/05/22 08:02:06;;;;;;;3.22;2.95;;;19.00;64.40;;;;;;5053293;28;20512;-64
2022/05/22 08:04:32;;;;;;;3.22;2.92;;;19.10;64.20;;;;;;5059112;28;20036;-66
2022/05/22 08:06:57;;;;;;;3.60;3.05;;;19.20;64.10;;;;;;5056858;28;20079;-65
2022/05/22 08:09:23;;;;;;;3.67;3.30;;;19.30;63.80;;;;;;5055924;28;20064;-66
2022/05/22 08:11:49;;;;;;;2.90;2.70;;;19.50;63.60;;;;;;5052961;28;20040;-64
2022/05/22 08:14:15;;;;;;;2.97;2.67;;;19.60;63.20;;;;;;5053142;28;20055;-63
2022/05/22 08:16:42;;;;;;;3.38;2.92;;;19.70;62.80;;;;;;5054221;28;20507;-66
2022/05/22 08:19:08;;;;;;;4.68;3.08;;;19.80;62.40;;;;;;5058014;28;20543;-66
2022/05/22 08:21:33;;;;;;;3.28;2.70;;;19.90;62.60;;;;;;5055552;28;20068;-65
2022/05/22 08:23:59;;;;;;;2.38;2.17;;;20.00;62.20;;;;;;5054904;28;20037;-65
2022/05/22 08:26:26;;;;;;;2.00;1.83;;;20.10;61.70;;;;;;5055121;28;20039;-65
2022/05/22 08:28:52;;;;;;;2.72;2.20;;;20.20;60.90;;;;;;5048089;28;20055;-65
2022/05/22 08:31:17;;;;;;;3.00;2.20;;;20.30;60.50;;;;;;5048013;28;20063;-64
2022/05/22 08:33:43;;;;;;;3.72;2.30;;;20.50;60.50;;;;;;5051475;28;20029;-66
2022/05/22 08:36:09;;;;;;;2.33;2.10;;;20.60;60.00;;;;;;5053620;28;20032;-65
2022/05/22 08:38:34;;;;;;;5.57;2.78;;;20.70;60.70;;;;;;5054926;28;20029;-66
2022/05/22 08:41:19;;;;;;;2.92;2.25;;;20.80;59.80;;;;;;5054034;28;20107;-64
2022/05/22 08:43:51;;;;;;;1.98;1.60;;;21.00;58.50;;;;;;5050337;28;20029;-63
2022/05/22 08:46:50;;;;;;;3.28;2.00;;;21.10;58.20;;;;;;5049286;28;20400;-65
2022/05/22 08:49:21;;;;;;;3.38;1.40;;;21.20;58.10;;;;;;5051682;28;20078;-65
2022/05/22 08:51:54;;;;;;;1.45;1.20;;;21.30;57.90;;;;;;5048956;28;20087;-65
2022/05/22 08:54:28;;;;;;;2.10;1.45;;;21.40;57.30;;;;;;5049631;28;20040;-66
2022/05/22 08:59:45;;;;;;;1.13;1.02;;;21.70;55.90;;;;;;5048766;28;21119;-65
2022/05/22 09:02:25;;;;;;;2.22;1.05;;;21.80;55.40;;;;;;5047825;28;20032;-65
2022/05/22 09:05:11;;;;;;;1.55;0.82;;;21.80;53.70;;;;;;5046646;28;20037;-66
2022/05/22 09:07:51;;;;;;;0.93;0.80;;;21.90;52.80;;;;;;5051805;28;20160;-65
2022/05/22 09:10:24;;;;;;;1.30;1.00;;;21.90;53.40;;;;;;5047226;28;20079;-65
2022/05/22 09:12:53;;;;;;;1.40;1.10;;;22.00;54.50;;;;;;5039644;28;20025;-66
2022/05/22 09:15:21;;;;;;;3.42;1.13;;;22.10;54.00;;;;;;5050273;28;20056;-66
2022/05/22 09:17:52;;;;;;;1.42;0.80;;;22.10;54.00;;;;;;5052452;28;20470;-64
2022/05/22 09:20:30;;;;;;;1.23;1.00;;;22.20;53.60;;;;;;5058093;28;20027;-65
2022/05/22 09:23:16;;;;;;;1.83;0.80;;;22.30;51.70;;;;;;5054301;28;20037;-65
2022/05/22 09:25:58;;;;;;;0.85;0.60;;;22.40;49.80;;;;;;5051564;28;20163;-65
2022/05/22 09:28:39;;;;;;;0.95;0.52;;;22.40;50.40;;;;;;5056379;28;20082;-63
2022/05/22 09:31:16;;;;;;;1.73;0.60;;;22.40;51.00;;;;;;5056073;28;20036;-66
2022/05/22 09:33:54;;;;;;;1.70;0.70;;;22.50;49.60;;;;;;5053585;28;20043;-66
2022/05/22 09:37:01;;;;;;;1.83;0.70;;;22.50;49.00;;;;;;5053098;28;20025;-65
2022/05/22 09:40:11;;;;;;;0.77;0.57;;;22.50;48.30;;;;;;5028454;28;20174;-65
2022/05/22 09:43:23;;;;;;;1.13;0.70;;;22.50;49.00;;;;;;5049949;28;20029;-65
2022/05/22 09:46:04;;;;;;;1.95;0.77;;;22.50;50.00;;;;;;5047040;28;20033;-64
2022/05/22 09:48:33;;;;;;;1.42;0.80;;;22.60;50.50;;;;;;5054886;28;20589;-65
2022/05/22 09:51:17;;;;;;;1.05;0.57;;;22.70;50.00;;;;;;5054208;28;20483;-66
2022/05/22 09:53:48;;;;;;;0.68;0.50;;;22.80;48.40;;;;;;5054815;28;20530;-65
2022/05/22 09:56:33;;;;;;;2.22;0.47;;;22.90;49.10;;;;;;5052038;28;20403;-66
2022/05/22 09:59:21;;;;;;;0.93;0.55;;;23.00;48.70;;;;;;5052533;28;20021;-65
2022/05/22 10:01:53;;;;;;;1.13;0.63;;;23.10;48.00;;;;;;5052497;28;20032;-65
2022/05/22 10:04:31;;;;;;;0.40;0.40;;;23.20;48.20;;;;;;5044900;28;20045;-66
2022/05/22 10:07:05;;;;;;;0.60;0.40;;;23.40;45.40;;;;;;5049403;28;20033;-66
2022/05/22 10:09:48;;;;;;;;;;;23.40;45.40;;;;;;5051921;28;20473;-66
2022/05/22 10:12:29;;;;;;;0.30;0.30;;;23.50;46.40;;;;;;5050191;28;20952;-66
2022/05/22 10:15:04;;;;;;;0.65;0.50;;;23.60;45.60;;;;;;5050937;28;20048;-65
2022/05/22 10:17:48;;;;;;;0.70;0.43;;;23.70;45.40;;;;;;5048209;28;20033;-66
2022/05/22 10:20:21;;;;;;;1.08;0.50;;;23.70;44.90;;;;;;5050467;28;20024;-66
2022/05/22 10:23:14;;;;;;;0.55;0.40;;;23.70;45.80;;;;;;5054273;28;20520;-66
2022/05/22 10:25:49;;;;;;;0.60;0.40;;;23.80;45.60;;;;;;5052258;28;20090;-66
2022/05/22 10:28:21;;;;;;;0.60;0.50;;;23.90;46.10;;;;;;5054226;28;20095;-65
2022/05/22 10:30:53;;;;;;;0.68;0.60;;;24.00;45.80;;;;;;5053201;28;20069;-66
2022/05/22 10:33:47;;;;;;;0.60;0.50;;;24.10;45.60;;;;;;5051593;28;20064;-66
2022/05/22 10:36:18;;;;;;;1.35;0.60;;;24.20;45.40;;;;;;5051580;28;20062;-65
2022/05/22 10:38:46;;;;;;;0.40;0.40;;;24.30;45.80;;;;;;5052248;28;20039;-66
2022/05/22 10:44:08;;;;;;;1.35;0.50;;;24.50;43.60;;;;;;5053560;28;20646;-65
2022/05/22 10:46:49;;;;;;;0.40;0.40;;;24.60;43.30;;;;;;5052801;28;20037;-66
2022/05/22 10:49:15;;;;;;;0.70;0.47;;;24.70;43.70;;;;;;5049766;28;20037;-65
2022/05/22 10:51:41;;;;;;;1.23;0.63;;;24.80;44.50;;;;;;5052781;28;20537;-66
2022/05/22 10:54:07;;;;;;;0.63;0.50;;;24.80;43.90;;;;;;5052124;28;20036;-66
2022/05/22 10:56:35;;;;;;;0.68;0.38;;;24.90;43.80;;;;;;5052167;28;20523;-65
2022/05/22 10:59:05;;;;;;;0.75;0.32;;;25.00;42.60;;;;;;5056861;28;20477;-66
2022/05/22 11:01:35;;;;;;;0.52;0.30;;;25.00;41.60;;;;;;5052939;28;20059;-66
2022/05/22 11:04:16;;;;;;;0.40;0.30;;;25.00;41.70;;;;;;5056288;28;20045;-66
2022/05/22 11:06:54;;;;;;;1.50;0.30;;;25.00;40.50;;;;;;5054386;28;20064;-66
2022/05/22 11:09:32;;;;;;;0.93;0.38;;;25.00;40.10;;;;;;5058905;28;20416;-66
2022/05/22 11:12:10;;;;;;;2.58;0.40;;;25.10;39.50;;;;;;5051588;28;20036;-65
2022/05/22 11:14:36;;;;;;;0.47;0.30;;;25.20;40.40;;;;;;5055394;28;20075;-65
2022/05/22 11:17:17;;;;;;;0.70;0.20;;;25.20;40.40;;;;;;5059074;28;20100;-64
2022/05/22 11:19:45;;;;;;;1.17;0.30;;;25.30;38.50;;;;;;5064405;28;20080;-66
2022/05/22 11:22:58;;;;;;;1.27;0.45;;;25.30;39.90;;;;;;5056836;28;20706;-66
2022/05/22 11:25:41;;;;;;;0.60;0.20;;;25.40;39.10;;;;;;5033008;28;20523;-65
2022/05/22 11:28:27;;;;;;;1.98;0.30;;;25.50;40.30;;;;;;5056735;28;20500;-66
2022/05/22 11:31:24;;;;;;;0.60;0.22;;;25.60;38.50;;;;;;5056173;28;20531;-66
2022/05/22 11:34:17;;;;;;;0.60;0.40;;;25.70;38.30;;;;;;5056830;28;20094;-66
2022/05/22 11:36:52;;;;;;;0.30;0.30;;;25.70;36.50;;;;;;5055832;28;20488;-66
2022/05/22 11:39:39;;;;;;;0.60;0.30;;;25.70;39.00;;;;;;5058473;28;20021;-66
2022/05/22 11:42:14;;;;;;;0.28;0.28;;;25.70;37.10;;;;;;5054339;28;20035;-66
2022/05/22 11:45:04;;;;;;;2.00;0.30;;;25.70;37.90;;;;;;5055145;28;20561;-66
2022/05/22 11:47:52;;;;;;;0.38;0.20;;;25.70;37.40;;;;;;5056960;28;20043;-66
2022/05/22 11:50:42;;;;;;;0.50;0.32;;;25.70;35.90;;;;;;5063385;28;20411;-66
2022/05/22 11:53:35;;;;;;;0.52;0.38;;;25.70;37.30;;;;;;5053549;28;20032;-66
2022/05/22 11:56:03;;;;;;;0.35;0.30;;;25.70;37.20;;;;;;5056282;28;20531;-66
2022/05/22 11:58:50;;;;;;;0.30;0.20;;;25.80;38.00;;;;;;5053491;28;20479;-67
2022/05/22 12:01:27;;;;;;;1.33;0.30;;;25.90;37.20;;;;;;5047324;28;20035;-66
2022/05/22 12:03:52;;;;;;;1.23;0.30;;;25.90;38.20;;;;;;5053618;28;20442;-65
2022/05/22 12:06:42;;;;;;;0.40;0.30;;;26.10;38.90;;;;;;5050534;28;20082;-65
2022/05/22 12:09:26;;;;;;;0.28;0.25;;;26.10;34.10;;;;;;5051807;28;20036;-66
2022/05/22 12:12:22;;;;;;;2.43;0.40;;;26.10;36.70;;;;;;5049727;28;20037;-66
2022/05/22 12:14:53;;;;;;;0.73;0.52;;;26.00;37.30;;;;;;5022990;28;20117;-66
2022/05/22 12:17:32;;;;;;;0.55;0.35;;;26.00;35.90;;;;;;5053809;28;20585;-66
2022/05/22 12:20:16;;;;;;;0.73;0.40;;;26.00;35.90;;;;;;5050760;28;20112;-65
2022/05/22 12:23:10;;;;;;;1.13;0.45;;;26.00;35.70;;;;;;5049786;28;20036;-63
2022/05/22 12:25:42;;;;;;;0.60;0.30;;;26.00;34.60;;;;;;5050392;28;20056;-66
2022/05/22 12:28:43;;;;;;;0.47;0.40;;;25.90;35.50;;;;;;5047291;28;20048;-66
2022/05/22 12:31:26;;;;;;;1.40;0.47;;;25.80;35.70;;;;;;5043713;28;20057;-65
2022/05/22 12:33:55;;;;;;;1.10;0.40;;;25.70;35.80;;;;;;5052945;28;20385;-65
2022/05/22 12:36:27;;;;;;;0.60;0.40;;;25.70;37.50;;;;;;5054191;28;20037;-66
2022/05/22 12:39:09;;;;;;;0.47;0.32;;;25.70;37.60;;;;;;5048557;28;20147;-64
2022/05/22 12:41:50;;;;;;;0.60;0.40;;;25.70;36.90;;;;;;5050532;28;20113;-66
2022/05/22 12:44:16;;;;;;;2.15;0.40;;;25.70;36.30;;;;;;5053201;28;20098;-66
2022/05/22 12:46:42;;;;;;;2.08;0.50;;;25.80;38.00;;;;;;5050675;28;20037;-65
2022/05/22 12:49:19;;;;;;;0.68;0.30;;;25.80;38.30;;;;;;5052387;28;20864;-66
2022/05/22 12:51:59;;;;;;;0.43;0.28;;;25.80;38.40;;;;;;5053505;28;20037;-65
2022/05/22 12:54:28;;;;;;;0.77;0.32;;;25.80;38.50;;;;;;5053173;28;20052;-66
2022/05/22 12:57:11;;;;;;;0.68;0.40;;;25.80;39.20;;;;;;5054702;28;20044;-66
2022/05/22 12:59:37;;;;;;;1.30;0.40;;;25.90;38.20;;;;;;5052328;28;20040;-65
2022/05/22 13:02:04;;;;;;;0.82;0.40;;;26.00;38.70;;;;;;5050225;28;20045;-65
2022/05/22 13:04:36;;;;;;;0.63;0.40;;;26.10;38.80;;;;;;5044781;28;20565;-63
2022/05/22 13:07:07;;;;;;;0.60;0.40;;;26.10;38.20;;;;;;5047957;28;20501;-65
2022/05/22 13:09:33;;;;;;;0.40;0.38;;;26.10;38.00;;;;;;5048064;28;20077;-66
2022/05/22 13:12:02;;;;;;;0.55;0.30;;;26.10;38.40;;;;;;5042920;28;20603;-66
2022/05/22 13:14:35;;;;;;;0.52;0.30;;;26.10;37.50;;;;;;5055722;28;20167;-66
2022/05/22 13:17:01;;;;;;;0.47;0.30;;;26.20;37.80;;;;;;5052263;28;20108;-65
2022/05/22 13:19:29;;;;;;;0.80;0.38;;;26.20;37.50;;;;;;5053123;28;20067;-67